sensor_id;sensor_type;location;lat;lon;timestamp;pressure;altitude;pressure_sealevel;temperature;humidity
5883;BME280;2967;51.488;6.618;2023-06-26T00:03:40;100940.69;;;24.88;85.86
5883;BME280;2967;51.488;6.618;2023-06-26T00:08:43;100964.13;;;24.95;86.08
5883;BME280;2967;51.488;6.618;2023-06-26T00:13:47;100955.88;;;24.74;86.00
5883;BME280;2967;51.488;6.618;2023-06-26T00:18:50;100963.56;;;24.71;88.11
5883;BME280;2967;51.488;6.618;2023-06-26T00:23:53;100957.69;;;24.45;89.00
5883;BME280;2967;51.488;6.618;2023-06-26T00:28:59;100945.28;;;24.36;89.37
5883;BME280;2967;51.488;6.618;2023-06-26T00:34:03;100955.28;;;24.36;90.16
5883;BME280;2967;51.488;6.618;2023-06-26T00:39:06;100900.72;;;23.95;92.31
5883;BME280;2967;51.488;6.618;2023-06-26T00:44:11;100956.44;;;24.19;92.67
5883;BME280;2967;51.488;6.618;2023-06-26T00:49:13;100952.97;;;24.10;93.26
5883;BME280;2967;51.488;6.618;2023-06-26T00:54:17;100939.22;;;23.97;92.42
5883;BME280;2967;51.488;6.618;2023-06-26T00:59:24;100917.38;;;23.76;93.96
5883;BME280;2967;51.488;6.618;2023-06-26T01:04:29;100940.00;;;24.06;92.83
5883;BME280;2967;51.488;6.618;2023-06-26T01:09:34;100943.59;;;23.98;93.50
5883;BME280;2967;51.488;6.618;2023-06-26T01:14:39;100918.66;;;23.88;92.37
5883;BME280;2967;51.488;6.618;2023-06-26T01:19:42;100912.56;;;23.94;91.97
5883;BME280;2967;51.488;6.618;2023-06-26T01:24:54;100917.53;;;24.05;92.03
5883;BME280;2967;51.488;6.618;2023-06-26T01:30:02;100882.38;;;23.83;91.50
5883;BME280;2967;51.488;6.618;2023-06-26T01:35:07;100893.56;;;24.02;90.89
5883;BME280;2967;51.488;6.618;2023-06-26T01:40:11;100922.66;;;24.15;90.84
5883;BME280;2967;51.488;6.618;2023-06-26T01:45:23;100912.69;;;24.15;89.92
5883;BME280;2967;51.488;6.618;2023-06-26T01:50:28;100916.13;;;24.09;90.22
5883;BME280;2967;51.488;6.618;2023-06-26T01:55:36;100924.72;;;24.13;90.54
5883;BME280;2967;51.488;6.618;2023-06-26T02:00:44;100937.63;;;24.03;90.72
5883;BME280;2967;51.488;6.618;2023-06-26T02:05:46;100939.69;;;24.01;91.13
5883;BME280;2967;51.488;6.618;2023-06-26T02:10:49;100940.16;;;24.04;91.58
5883;BME280;2967;51.488;6.618;2023-06-26T02:20:56;100921.59;;;23.79;92.34
5883;BME280;2967;51.488;6.618;2023-06-26T02:26:00;100939.00;;;23.76;92.65
5883;BME280;2967;51.488;6.618;2023-06-26T02:31:04;100924.59;;;23.61;93.06
5883;BME280;2967;51.488;6.618;2023-06-26T02:36:07;100956.66;;;23.64;93.77
5883;BME280;2967;51.488;6.618;2023-06-26T02:41:10;100962.63;;;23.52;94.61
5883;BME280;2967;51.488;6.618;2023-06-26T02:46:14;100971.22;;;23.55;94.50
5883;BME280;2967;51.488;6.618;2023-06-26T02:51:17;100892.63;;;22.81;95.28
5883;BME280;2967;51.488;6.618;2023-06-26T02:56:20;100986.97;;;23.44;96.09
5883;BME280;2967;51.488;6.618;2023-06-26T03:01:25;100957.28;;;22.97;97.07
5883;BME280;2967;51.488;6.618;2023-06-26T03:06:28;100909.06;;;22.56;98.43
5883;BME280;2967;51.488;6.618;2023-06-26T03:11:31;100986.25;;;23.19;97.63
5883;BME280;2967;51.488;6.618;2023-06-26T03:16:35;100986.72;;;23.31;95.45
5883;BME280;2967;51.488;6.618;2023-06-26T03:21:38;100995.59;;;23.39;93.20
5883;BME280;2967;51.488;6.618;2023-06-26T03:26:42;100980.69;;;23.21;92.99
5883;BME280;2967;51.488;6.618;2023-06-26T03:31:46;100974.47;;;23.12;91.98
5883;BME280;2967;51.488;6.618;2023-06-26T03:36:49;101000.38;;;23.29;91.95
5883;BME280;2967;51.488;6.618;2023-06-26T03:41:58;101010.94;;;23.47;91.92
5883;BME280;2967;51.488;6.618;2023-06-26T03:47:04;101018.47;;;23.13;92.93
5883;BME280;2967;51.488;6.618;2023-06-26T03:52:07;101029.41;;;23.27;93.40
5883;BME280;2967;51.488;6.618;2023-06-26T03:57:10;101041.44;;;23.01;94.73
5883;BME280;2967;51.488;6.618;2023-06-26T04:02:14;100966.00;;;22.69;94.83
5883;BME280;2967;51.488;6.618;2023-06-26T04:07:17;101021.38;;;23.03;96.30
5883;BME280;2967;51.488;6.618;2023-06-26T04:12:21;101016.50;;;22.99;94.93
5883;BME280;2967;51.488;6.618;2023-06-26T04:17:27;101054.09;;;23.16;94.06
5883;BME280;2967;51.488;6.618;2023-06-26T04:22:30;101064.34;;;23.29;91.70
5883;BME280;2967;51.488;6.618;2023-06-26T04:27:33;101032.50;;;23.16;90.89
5883;BME280;2967;51.488;6.618;2023-06-26T04:32:43;100999.78;;;23.03;90.24
5883;BME280;2967;51.488;6.618;2023-06-26T04:37:46;101019.34;;;23.13;89.39
5883;BME280;2967;51.488;6.618;2023-06-26T04:42:49;101015.63;;;23.06;89.56
5883;BME280;2967;51.488;6.618;2023-06-26T04:47:53;101056.94;;;23.15;89.99
5883;BME280;2967;51.488;6.618;2023-06-26T04:52:58;101069.88;;;23.35;90.28
5883;BME280;2967;51.488;6.618;2023-06-26T04:58:04;101063.69;;;23.03;91.99
5883;BME280;2967;51.488;6.618;2023-06-26T05:03:08;101070.63;;;22.97;92.17
5883;BME280;2967;51.488;6.618;2023-06-26T05:08:16;101040.31;;;22.79;92.11
5883;BME280;2967;51.488;6.618;2023-06-26T05:13:19;101073.84;;;22.93;92.65
5883;BME280;2967;51.488;6.618;2023-06-26T05:18:23;101073.47;;;23.04;92.20
5883;BME280;2967;51.488;6.618;2023-06-26T05:23:28;101069.28;;;23.01;92.87
5883;BME280;2967;51.488;6.618;2023-06-26T05:28:33;101109.41;;;23.04;93.64
5883;BME280;2967;51.488;6.618;2023-06-26T05:33:42;101104.53;;;22.84;94.67
5883;BME280;2967;51.488;6.618;2023-06-26T05:38:46;101061.41;;;22.36;97.13
5883;BME280;2967;51.488;6.618;2023-06-26T05:43:53;101120.06;;;22.82;96.42
5883;BME280;2967;51.488;6.618;2023-06-26T05:48:57;101129.16;;;22.81;96.72
5883;BME280;2967;51.488;6.618;2023-06-26T05:54:01;101130.69;;;22.75;96.96
5883;BME280;2967;51.488;6.618;2023-06-26T05:59:05;101128.00;;;22.83;96.53
5883;BME280;2967;51.488;6.618;2023-06-26T06:04:15;101128.66;;;22.69;98.22
5883;BME280;2967;51.488;6.618;2023-06-26T06:09:18;101125.47;;;22.66;97.36
5883;BME280;2967;51.488;6.618;2023-06-26T06:14:23;101146.22;;;22.81;97.62
5883;BME280;2967;51.488;6.618;2023-06-26T06:19:27;101150.59;;;22.90;97.03
5883;BME280;2967;51.488;6.618;2023-06-26T06:24:30;101154.13;;;22.99;97.52
5883;BME280;2967;51.488;6.618;2023-06-26T06:29:32;101156.16;;;22.81;98.30
5883;BME280;2967;51.488;6.618;2023-06-26T06:34:37;101188.34;;;23.06;97.84
5883;BME280;2967;51.488;6.618;2023-06-26T06:39:42;101178.56;;;22.97;98.07
5883;BME280;2967;51.488;6.618;2023-06-26T06:44:46;101197.97;;;22.93;98.30
5883;BME280;2967;51.488;6.618;2023-06-26T06:49:51;101195.09;;;22.86;99.44
5883;BME280;2967;51.488;6.618;2023-06-26T06:54:57;101202.00;;;22.81;100.00
5883;BME280;2967;51.488;6.618;2023-06-26T07:00:04;101210.44;;;22.78;100.00
5883;BME280;2967;51.488;6.618;2023-06-26T07:05:12;101193.41;;;22.77;100.00
5883;BME280;2967;51.488;6.618;2023-06-26T07:10:15;101215.69;;;23.03;100.00
5883;BME280;2967;51.488;6.618;2023-06-26T07:15:17;101188.19;;;23.08;99.90
5883;BME280;2967;51.488;6.618;2023-06-26T07:20:22;101189.41;;;23.13;100.00
5883;BME280;2967;51.488;6.618;2023-06-26T07:25:25;101215.34;;;23.38;99.35
5883;BME280;2967;51.488;6.618;2023-06-26T07:30:31;101217.03;;;23.07;98.75
5883;BME280;2967;51.488;6.618;2023-06-26T07:35:35;101216.38;;;23.29;98.21
5883;BME280;2967;51.488;6.618;2023-06-26T07:40:38;101207.28;;;23.22;96.49
5883;BME280;2967;51.488;6.618;2023-06-26T07:45:43;101231.22;;;23.25;97.20
5883;BME280;2967;51.488;6.618;2023-06-26T07:50:57;101241.00;;;23.34;97.18
5883;BME280;2967;51.488;6.618;2023-06-26T07:56:02;101242.69;;;23.35;96.23
5883;BME280;2967;51.488;6.618;2023-06-26T08:01:07;101227.81;;;22.83;97.07
5883;BME280;2967;51.488;6.618;2023-06-26T08:06:15;101022.25;;;21.76;95.85
5883;BME280;2967;51.488;6.618;2023-06-26T08:11:19;101267.34;;;23.32;95.45
5883;BME280;2967;51.488;6.618;2023-06-26T08:16:21;101275.78;;;23.37;94.94
5883;BME280;2967;51.488;6.618;2023-06-26T08:21:29;101270.53;;;23.44;94.55
5883;BME280;2967;51.488;6.618;2023-06-26T08:26:36;101275.41;;;23.48;95.26
5883;BME280;2967;51.488;6.618;2023-06-26T08:31:44;101255.34;;;23.51;94.55
5883;BME280;2967;51.488;6.618;2023-06-26T08:36:48;101292.97;;;23.84;92.54
5883;BME280;2967;51.488;6.618;2023-06-26T08:41:52;101297.50;;;23.84;92.64
5883;BME280;2967;51.488;6.618;2023-06-26T08:46:59;101302.41;;;23.88;90.73
5883;BME280;2967;51.488;6.618;2023-06-26T08:52:10;101279.47;;;23.84;89.72
5883;BME280;2967;51.488;6.618;2023-06-26T08:57:18;101315.94;;;23.80;91.92
5883;BME280;2967;51.488;6.618;2023-06-26T09:02:55;101310.19;;;23.91;91.14
5883;BME280;2967;51.488;6.618;2023-06-26T09:08:04;101267.97;;;23.66;91.65
5883;BME280;2967;51.488;6.618;2023-06-26T09:13:09;101239.81;;;23.53;89.76
5883;BME280;2967;51.488;6.618;2023-06-26T09:18:34;101288.88;;;24.04;89.18
5883;BME280;2967;51.488;6.618;2023-06-26T09:23:40;101273.97;;;24.08;88.93
5883;BME280;2967;51.488;6.618;2023-06-26T09:28:44;101309.00;;;24.40;84.16
5883;BME280;2967;51.488;6.618;2023-06-26T09:33:55;101282.53;;;24.28;85.65
5883;BME280;2967;51.488;6.618;2023-06-26T09:39:06;101330.34;;;24.27;84.07
5883;BME280;2967;51.488;6.618;2023-06-26T09:44:14;101302.75;;;24.01;85.53
5883;BME280;2967;51.488;6.618;2023-06-26T09:49:18;101332.78;;;24.14;86.72
5883;BME280;2967;51.488;6.618;2023-06-26T09:54:23;101264.78;;;23.87;85.71
5883;BME280;2967;51.488;6.618;2023-06-26T09:59:29;101331.72;;;24.31;82.63
5883;BME280;2967;51.488;6.618;2023-06-26T10:04:36;101350.44;;;24.41;78.62
5883;BME280;2967;51.488;6.618;2023-06-26T10:09:42;101305.34;;;24.33;81.44
5883;BME280;2967;51.488;6.618;2023-06-26T10:14:47;101337.56;;;24.59;79.88
5883;BME280;2967;51.488;6.618;2023-06-26T10:19:51;101358.69;;;24.47;81.29
5883;BME280;2967;51.488;6.618;2023-06-26T10:24:58;101339.84;;;24.31;81.60
5883;BME280;2967;51.488;6.618;2023-06-26T10:30:05;101363.16;;;24.24;76.11
5883;BME280;2967;51.488;6.618;2023-06-26T10:35:11;101356.75;;;24.17;73.09
5883;BME280;2967;51.488;6.618;2023-06-26T10:40:42;101355.41;;;24.21;70.63
5883;BME280;2967;51.488;6.618;2023-06-26T10:45:54;101288.56;;;23.83;68.23
5883;BME280;2967;51.488;6.618;2023-06-26T10:51:13;101365.16;;;24.30;70.55
5883;BME280;2967;51.488;6.618;2023-06-26T10:56:18;101346.44;;;24.13;69.33
5883;BME280;2967;51.488;6.618;2023-06-26T11:01:22;101375.31;;;24.28;73.15
5883;BME280;2967;51.488;6.618;2023-06-26T11:06:29;101376.38;;;23.55;70.83
5883;BME280;2967;51.488;6.618;2023-06-26T11:12:03;101384.34;;;23.89;69.06
5883;BME280;2967;51.488;6.618;2023-06-26T11:17:22;101235.09;;;23.23;68.88
5883;BME280;2967;51.488;6.618;2023-06-26T11:22:34;101394.75;;;24.24;66.34
5883;BME280;2967;51.488;6.618;2023-06-26T11:27:43;101254.47;;;23.66;63.91
5883;BME280;2967;51.488;6.618;2023-06-26T11:32:49;101415.13;;;24.50;64.59
5883;BME280;2967;51.488;6.618;2023-06-26T11:37:55;101410.44;;;24.44;64.55
5883;BME280;2967;51.488;6.618;2023-06-26T11:43:00;101410.44;;;24.44;60.49
5883;BME280;2967;51.488;6.618;2023-06-26T11:48:03;101413.00;;;24.46;57.67
5883;BME280;2967;51.488;6.618;2023-06-26T11:53:06;101412.75;;;24.71;58.77
5883;BME280;2967;51.488;6.618;2023-06-26T11:58:11;101434.59;;;24.69;58.98
5883;BME280;2967;51.488;6.618;2023-06-26T12:03:14;101439.47;;;24.74;58.99
5883;BME280;2967;51.488;6.618;2023-06-26T12:08:28;101438.03;;;24.94;57.12
5883;BME280;2967;51.488;6.618;2023-06-26T12:13:34;101457.03;;;25.24;53.97
5883;BME280;2967;51.488;6.618;2023-06-26T12:18:38;101454.16;;;25.18;54.88
5883;BME280;2967;51.488;6.618;2023-06-26T12:23:48;101361.09;;;24.42;55.30
5883;BME280;2967;51.488;6.618;2023-06-26T12:29:01;101436.63;;;25.06;54.18
5883;BME280;2967;51.488;6.618;2023-06-26T12:34:15;101427.72;;;24.89;53.58
5883;BME280;2967;51.488;6.618;2023-06-26T12:40:20;101483.78;;;25.19;53.46
5883;BME280;2967;51.488;6.618;2023-06-26T12:45:40;101407.63;;;24.84;51.27
5883;BME280;2967;51.488;6.618;2023-06-26T12:50:47;101462.78;;;24.83;54.55
5883;BME280;2967;51.488;6.618;2023-06-26T12:56:01;101433.50;;;24.86;55.11
5883;BME280;2967;51.488;6.618;2023-06-26T13:01:07;101454.41;;;24.54;56.65
5883;BME280;2967;51.488;6.618;2023-06-26T13:06:16;101472.81;;;24.51;58.28
5883;BME280;2967;51.488;6.618;2023-06-26T13:11:47;101456.25;;;24.62;54.96
5883;BME280;2967;51.488;6.618;2023-06-26T13:17:23;101467.56;;;24.49;52.10
5883;BME280;2967;51.488;6.618;2023-06-26T13:22:25;101489.56;;;24.38;52.28
5883;BME280;2967;51.488;6.618;2023-06-26T13:27:28;101467.09;;;24.30;50.38
5883;BME280;2967;51.488;6.618;2023-06-26T13:32:35;101503.44;;;24.35;49.96
5883;BME280;2967;51.488;6.618;2023-06-26T13:37:45;101500.91;;;24.66;48.11
5883;BME280;2967;51.488;6.618;2023-06-26T13:42:48;101510.13;;;24.87;50.64
5883;BME280;2967;51.488;6.618;2023-06-26T13:47:53;101467.34;;;24.82;52.33
5883;BME280;2967;51.488;6.618;2023-06-26T13:52:56;101504.06;;;24.85;53.26
5883;BME280;2967;51.488;6.618;2023-06-26T13:57:58;101502.75;;;24.65;52.39
5883;BME280;2967;51.488;6.618;2023-06-26T14:03:06;101443.97;;;25.20;47.99
5883;BME280;2967;51.488;6.618;2023-06-26T14:08:13;101522.78;;;25.79;44.72
5883;BME280;2967;51.488;6.618;2023-06-26T14:13:20;101516.22;;;26.19;42.80
5883;BME280;2967;51.488;6.618;2023-06-26T14:18:26;101496.91;;;25.69;43.51
5883;BME280;2967;51.488;6.618;2023-06-26T14:23:30;101480.19;;;25.35;44.49
5883;BME280;2967;51.488;6.618;2023-06-26T14:28:34;101471.19;;;25.34;46.27
5883;BME280;2967;51.488;6.618;2023-06-26T14:33:43;101515.94;;;25.14;44.58
5883;BME280;2967;51.488;6.618;2023-06-26T14:38:48;101493.44;;;24.67;48.90
5883;BME280;2967;51.488;6.618;2023-06-26T14:43:53;101490.59;;;24.37;52.19
5883;BME280;2967;51.488;6.618;2023-06-26T14:49:03;101544.50;;;24.15;57.58
5883;BME280;2967;51.488;6.618;2023-06-26T14:54:06;101518.81;;;24.51;58.25
5883;BME280;2967;51.488;6.618;2023-06-26T14:59:13;101502.41;;;24.60;55.47
5883;BME280;2967;51.488;6.618;2023-06-26T15:04:18;101549.72;;;24.88;54.63
5883;BME280;2967;51.488;6.618;2023-06-26T15:09:23;101548.50;;;25.06;52.28
5883;BME280;2967;51.488;6.618;2023-06-26T15:14:28;101544.25;;;25.12;52.28
5883;BME280;2967;51.488;6.618;2023-06-26T15:25:29;101262.28;;;23.45;53.55
5883;BME280;2967;51.488;6.618;2023-06-26T15:30:42;101527.75;;;24.91;55.21
5883;BME280;2967;51.488;6.618;2023-06-26T15:35:54;101498.38;;;24.56;55.71
5883;BME280;2967;51.488;6.618;2023-06-26T15:41:08;101533.53;;;24.72;55.53
5883;BME280;2967;51.488;6.618;2023-06-26T15:46:12;101545.19;;;24.64;55.48
5883;BME280;2967;51.488;6.618;2023-06-26T15:51:20;101544.69;;;24.45;54.60
5883;BME280;2967;51.488;6.618;2023-06-26T15:56:44;101542.84;;;24.30;55.48
5883;BME280;2967;51.488;6.618;2023-06-26T16:01:49;101539.94;;;24.07;59.02
5883;BME280;2967;51.488;6.618;2023-06-26T16:07:52;101543.16;;;24.11;59.38
5883;BME280;2967;51.488;6.618;2023-06-26T16:13:03;101558.84;;;23.99;58.85
5883;BME280;2967;51.488;6.618;2023-06-26T16:18:06;101508.09;;;23.77;59.40
5883;BME280;2967;51.488;6.618;2023-06-26T16:23:10;101506.91;;;23.56;57.97
5883;BME280;2967;51.488;6.618;2023-06-26T16:28:15;101552.19;;;23.78;58.34
5883;BME280;2967;51.488;6.618;2023-06-26T16:33:20;101505.03;;;23.56;58.69
5883;BME280;2967;51.488;6.618;2023-06-26T16:38:29;101550.66;;;23.67;57.92
5883;BME280;2967;51.488;6.618;2023-06-26T16:44:06;101511.38;;;23.39;57.58
5883;BME280;2967;51.488;6.618;2023-06-26T16:49:11;101544.38;;;23.59;57.36
5883;BME280;2967;51.488;6.618;2023-06-26T16:54:16;101572.06;;;23.61;58.10
5883;BME280;2967;51.488;6.618;2023-06-26T16:59:22;101500.03;;;23.20;57.72
5883;BME280;2967;51.488;6.618;2023-06-26T17:04:28;101530.63;;;23.36;58.96
5883;BME280;2967;51.488;6.618;2023-06-26T17:09:33;101567.47;;;23.45;57.24
5883;BME280;2967;51.488;6.618;2023-06-26T17:14:39;101575.22;;;23.48;58.50
5883;BME280;2967;51.488;6.618;2023-06-26T17:19:43;101507.50;;;23.00;57.32
5883;BME280;2967;51.488;6.618;2023-06-26T17:24:49;101565.97;;;23.51;56.69
5883;BME280;2967;51.488;6.618;2023-06-26T17:30:06;101467.31;;;22.97;55.94
5883;BME280;2967;51.488;6.618;2023-06-26T17:35:11;101581.16;;;23.52;56.27
5883;BME280;2967;51.488;6.618;2023-06-26T17:40:17;101577.41;;;23.45;56.24
5883;BME280;2967;51.488;6.618;2023-06-26T17:45:49;101583.84;;;23.52;56.86
5883;BME280;2967;51.488;6.618;2023-06-26T17:50:56;101590.91;;;23.37;57.62
5883;BME280;2967;51.488;6.618;2023-06-26T18:08:06;101274.97;;;21.03;60.97
5883;BME280;2967;51.488;6.618;2023-06-26T18:21:39;101453.22;;;22.01;61.08
5883;BME280;2967;51.488;6.618;2023-06-26T18:27:20;101297.50;;;21.02;60.48
5883;BME280;2967;51.488;6.618;2023-06-26T18:32:39;101431.78;;;21.74;59.09
5883;BME280;2967;51.488;6.618;2023-06-26T18:37:59;101417.34;;;21.49;59.21
5883;BME280;2967;51.488;6.618;2023-06-26T18:43:07;101454.66;;;21.71;59.35
5883;BME280;2967;51.488;6.618;2023-06-26T18:48:11;101625.16;;;22.68;59.53
5883;BME280;2967;51.488;6.618;2023-06-26T18:53:17;101622.19;;;22.53;59.04
5883;BME280;2967;51.488;6.618;2023-06-26T18:58:26;101601.28;;;22.38;59.28
5883;BME280;2967;51.488;6.618;2023-06-26T19:03:34;101641.44;;;22.58;59.66
5883;BME280;2967;51.488;6.618;2023-06-26T19:08:45;101609.50;;;22.36;59.65
5883;BME280;2967;51.488;6.618;2023-06-26T19:13:49;101639.66;;;22.49;59.69
5883;BME280;2967;51.488;6.618;2023-06-26T19:18:52;101646.38;;;22.45;61.10
5883;BME280;2967;51.488;6.618;2023-06-26T19:24:00;101617.94;;;22.16;61.91
5883;BME280;2967;51.488;6.618;2023-06-26T19:29:04;101621.22;;;22.10;63.65
5883;BME280;2967;51.488;6.618;2023-06-26T19:34:07;101657.03;;;22.02;63.09
5883;BME280;2967;51.488;6.618;2023-06-26T19:39:11;101659.88;;;22.18;62.69
5883;BME280;2967;51.488;6.618;2023-06-26T19:44:16;101661.09;;;22.06;63.50
5883;BME280;2967;51.488;6.618;2023-06-26T19:49:20;101664.59;;;21.89;64.41
5883;BME280;2967;51.488;6.618;2023-06-26T19:54:23;101672.81;;;21.71;64.65
5883;BME280;2967;51.488;6.618;2023-06-26T20:20:40;101677.09;;;21.08;68.61
5883;BME280;2967;51.488;6.618;2023-06-26T20:25:43;101695.66;;;20.92;69.81
5883;BME280;2967;51.488;6.618;2023-06-26T20:30:51;101692.25;;;20.90;69.80
5883;BME280;2967;51.488;6.618;2023-06-26T20:35:55;101668.31;;;20.59;70.42
5883;BME280;2967;51.488;6.618;2023-06-26T20:40:59;101686.56;;;20.74;69.72
5883;BME280;2967;51.488;6.618;2023-06-26T20:46:03;101704.84;;;20.71;69.41
5883;BME280;2967;51.488;6.618;2023-06-26T20:51:08;101705.41;;;20.65;70.18
5883;BME280;2967;51.488;6.618;2023-06-26T20:56:12;101692.09;;;20.54;70.16
5883;BME280;2967;51.488;6.618;2023-06-26T21:01:15;101708.97;;;20.65;70.15
5883;BME280;2967;51.488;6.618;2023-06-26T21:06:19;101703.84;;;20.34;70.85
5883;BME280;2967;51.488;6.618;2023-06-26T21:11:21;101715.16;;;20.47;70.65
5883;BME280;2967;51.488;6.618;2023-06-26T21:16:24;101686.41;;;20.19;71.58
5883;BME280;2967;51.488;6.618;2023-06-26T21:21:29;101698.28;;;20.16;72.03
5883;BME280;2967;51.488;6.618;2023-06-26T21:26:32;101729.13;;;20.22;72.40
5883;BME280;2967;51.488;6.618;2023-06-26T21:31:34;101707.91;;;20.19;72.50
5883;BME280;2967;51.488;6.618;2023-06-26T21:36:39;101707.94;;;20.28;72.92
5883;BME280;2967;51.488;6.618;2023-06-26T21:41:41;101717.44;;;20.42;72.81
5883;BME280;2967;51.488;6.618;2023-06-26T21:46:44;101716.53;;;20.13;73.91
5883;BME280;2967;51.488;6.618;2023-06-26T21:51:49;101698.34;;;19.96;74.37
5883;BME280;2967;51.488;6.618;2023-06-26T21:56:52;101725.47;;;20.23;74.08
5883;BME280;2967;51.488;6.618;2023-06-26T22:01:54;101727.69;;;20.18;75.30
5883;BME280;2967;51.488;6.618;2023-06-26T22:06:59;101698.56;;;19.83;76.26
5883;BME280;2967;51.488;6.618;2023-06-26T22:12:06;101736.16;;;20.13;76.31
5883;BME280;2967;51.488;6.618;2023-06-26T22:17:09;101707.88;;;20.09;75.26
5883;BME280;2967;51.488;6.618;2023-06-26T22:22:13;101730.78;;;20.13;75.58
5883;BME280;2967;51.488;6.618;2023-06-26T22:27:16;101727.47;;;19.91;77.22
5883;BME280;2967;51.488;6.618;2023-06-26T22:32:19;101727.88;;;19.96;77.04
5883;BME280;2967;51.488;6.618;2023-06-26T22:37:23;101724.00;;;19.49;79.19
5883;BME280;2967;51.488;6.618;2023-06-26T22:42:25;101724.22;;;19.67;78.21
5883;BME280;2967;51.488;6.618;2023-06-26T22:47:28;101723.69;;;19.43;79.37
5883;BME280;2967;51.488;6.618;2023-06-26T22:52:33;101665.53;;;19.23;79.03
5883;BME280;2967;51.488;6.618;2023-06-26T22:57:36;101679.59;;;19.36;79.72
5883;BME280;2967;51.488;6.618;2023-06-26T23:02:41;101719.25;;;19.62;80.36
5883;BME280;2967;51.488;6.618;2023-06-26T23:07:46;101719.16;;;19.43;82.22
5883;BME280;2967;51.488;6.618;2023-06-26T23:12:48;101667.03;;;19.16;82.74
5883;BME280;2967;51.488;6.618;2023-06-26T23:17:51;101688.72;;;19.24;83.82
5883;BME280;2967;51.488;6.618;2023-06-26T23:22:56;101664.41;;;18.64;86.54
5883;BME280;2967;51.488;6.618;2023-06-26T23:28:00;101708.38;;;18.93;86.55
5883;BME280;2967;51.488;6.618;2023-06-26T23:33:03;101720.81;;;18.94;87.76
5883;BME280;2967;51.488;6.618;2023-06-26T23:38:09;101698.63;;;18.92;87.51
5883;BME280;2967;51.488;6.618;2023-06-26T23:43:19;101677.25;;;18.81;86.98
5883;BME280;2967;51.488;6.618;2023-06-26T23:48:25;101719.59;;;18.67;88.35
5883;BME280;2967;51.488;6.618;2023-06-26T23:53:29;101730.16;;;18.99;87.86
5883;BME280;2967;51.488;6.618;2023-06-26T23:58:32;101695.41;;;18.98;87.69
